Time,TemperatureF,DewpointF,PressureIn,WindDirection,WindDirectionDegrees,WindSpeedMPH,WindSpeedGustMPH,Humidity,HourlyPrecipIn,Conditions,Clouds,dailyrainin,SoftwareType,DateUTC
2013-08-07 16:59:00,33.1,33.1,30.26,North,0,0.0,0.0,100,0.00,,---,0.01,VWS V14.01,2013-08-07 22:59:00,
2013-08-07 17:04:00,81.5,52.7,30.05,SW,225,8.5,8.5,37,0.00,,---,3.23,VWS V14.01,2013-08-07 23:04:00,
2013-08-07 17:09:00,80.8,52.8,30.05,WSW,248,6.0,8.5,38,0.00,,---,3.23,VWS V14.01,2013-08-07 23:09:00,
2013-08-07 17:11:00,80.6,52.7,30.04,WSW,248,4.9,4.9,38,0.00,,---,3.23,VWS V14.01,2013-08-07 23:11:00,
2013-08-07 17:14:00,80.6,52.7,30.04,WSW,248,4.9,4.9,38,0.00,,---,3.23,VWS V14.01,2013-08-07 23:14:00,
2013-08-07 17:19:00,80.6,52.7,30.04,WSW,248,4.9,4.9,38,0.00,,---,3.23,VWS V14.01,2013-08-07 23:19:00,
2013-08-07 17:28:00,80.6,52.7,30.04,WSW,248,4.9,4.9,38,0.00,,---,3.23,VWS V14.01,2013-08-07 23:28:00,
2013-08-07 17:37:00,80.6,52.7,30.04,WSW,248,4.9,4.9,38,0.00,,---,3.23,VWS V14.01,2013-08-07 23:37:00,
2013-08-07 17:57:00,80.6,52.7,30.04,WSW,248,4.9,4.9,38,0.00,,---,3.23,VWS V14.01,2013-08-07 23:57:00,
2013-08-07 18:02:00,80.8,54.2,30.05,WSW,248,3.8,4.7,40,0.00,,---,3.23,VWS V14.01,2013-08-08 00:02:00,
2013-08-07 18:07:00,80.5,53.3,30.05,WSW,248,8.1,10.5,39,0.00,,---,3.23,VWS V14.01,2013-08-08 00:07:00,
2013-08-07 18:12:00,79.7,53.9,30.05,WSW,248,4.5,7.2,41,0.00,,---,3.23,VWS V14.01,2013-08-08 00:12:00,
2013-08-07 18:17:00,79.6,53.8,30.04,NW,315,9.8,9.8,41,0.00,,---,3.23,VWS V14.01,2013-08-08 00:17:00,
2013-08-07 18:22:00,79.2,54.2,30.05,NW,315,7.4,8.5,42,0.00,,---,3.23,VWS V14.01,2013-08-08 00:22:00,
2013-08-07 18:27:00,78.5,54.2,30.05,WNW,292,4.3,6.9,43,0.00,,---,3.23,VWS V14.01,2013-08-08 00:27:00,
2013-08-07 18:32:00,78.3,54.0,30.04,West,270,4.7,4.7,43,0.00,,---,3.23,VWS V14.01,2013-08-08 00:32:00,
2013-08-07 18:37:00,78.1,54.4,30.05,WNW,292,3.1,4.9,44,0.00,,---,3.23,VWS V14.01,2013-08-08 00:37:00,
2013-08-07 18:42:00,77.8,54.8,30.04,West,270,3.4,6.5,45,0.00,,---,3.23,VWS V14.01,2013-08-08 00:42:00,
2013-08-07 18:47:00,78.8,54.4,30.05,WNW,292,4.7,7.2,43,0.00,,---,3.23,VWS V14.01,2013-08-08 00:47:00,
2013-08-07 18:52:00,78.3,53.3,30.05,West,270,5.1,5.4,42,0.00,,---,3.23,VWS V14.01,2013-08-08 00:52:00,
2013-08-07 18:57:00,78.1,53.2,30.05,West,270,3.6,3.6,42,0.00,,---,3.23,VWS V14.01,2013-08-08 00:57:00,
2013-08-07 19:02:00,77.6,55.2,30.05,NNW,338,5.1,8.5,46,0.00,,---,3.23,VWS V14.01,2013-08-08 01:02:00,
2013-08-07 19:07:00,77.4,55.6,30.05,North,0,8.7,8.7,47,0.00,,---,3.23,VWS V14.01,2013-08-08 01:07:00,
2013-08-07 19:12:00,77.2,56.0,30.06,NNW,338,6.3,7.6,48,0.00,,---,3.23,VWS V14.01,2013-08-08 01:12:00,
2013-08-07 19:17:00,77.8,56.0,30.05,NW,315,2.5,5.4,47,0.00,,---,3.23,VWS V14.01,2013-08-08 01:17:00,
2013-08-07 19:22:00,78.1,55.7,30.06,NNW,338,4.7,6.5,46,0.00,,---,3.23,VWS V14.01,2013-08-08 01:22:00,
2013-08-07 19:27:00,78.1,55.0,30.06,North,0,5.4,5.4,45,0.00,,---,3.23,VWS V14.01,2013-08-08 01:27:00,
2013-08-07 19:32:00,77.9,54.9,30.06,NNW,338,2.7,7.4,45,0.00,,---,3.23,VWS V14.01,2013-08-08 01:32:00,
2013-08-07 19:37:00,77.0,54.1,30.07,North,0,4.7,7.2,45,0.00,,---,3.23,VWS V14.01,2013-08-08 01:37:00,
2013-08-07 19:42:00,76.7,53.8,30.06,NW,315,5.1,6.7,45,0.00,,---,3.23,VWS V14.01,2013-08-08 01:42:00,
2013-08-07 19:47:00,76.3,53.4,30.07,North,0,3.8,6.9,45,0.00,,---,3.23,VWS V14.01,2013-08-08 01:47:00,
2013-08-07 19:52:00,75.6,53.4,30.07,North,0,4.0,4.0,46,0.00,,---,3.23,VWS V14.01,2013-08-08 01:52:00,
2013-08-07 19:57:00,75.4,53.2,30.07,North,0,4.9,4.9,46,0.00,,---,3.23,VWS V14.01,2013-08-08 01:57:00,
2013-08-07 20:02:00,74.9,53.3,30.07,NNE,22,2.7,4.7,47,0.00,,---,3.23,VWS V14.01,2013-08-08 02:02:00,
2013-08-07 20:07:00,74.5,53.0,30.07,NNE,22,5.4,7.6,47,0.00,,---,3.23,VWS V14.01,2013-08-08 02:07:00,
2013-08-07 20:12:00,74.3,53.4,30.07,North,0,3.1,3.4,48,0.00,,---,3.23,VWS V14.01,2013-08-08 02:12:00,
2013-08-07 20:17:00,74.2,53.3,30.07,NNW,338,5.4,5.4,48,0.00,,---,3.23,VWS V14.01,2013-08-08 02:17:00,
2013-08-07 20:22:00,74.2,53.3,30.07,NNE,22,3.8,5.6,48,0.00,,---,3.23,VWS V14.01,2013-08-08 02:22:00,
2013-08-07 20:27:00,74.0,53.1,30.07,NNW,338,4.3,6.3,48,0.00,,---,3.23,VWS V14.01,2013-08-08 02:27:00,
2013-08-07 20:32:00,73.8,52.3,30.07,NNE,22,2.5,2.7,47,0.00,,---,3.23,VWS V14.01,2013-08-08 02:32:00,
2013-08-07 20:37:00,73.6,52.7,30.07,NNE,22,2.5,2.5,48,0.00,,---,3.23,VWS V14.01,2013-08-08 02:37:00,
2013-08-07 20:42:00,73.3,53.0,30.07,NNW,338,3.4,5.4,49,0.00,,---,3.23,VWS V14.01,2013-08-08 02:42:00,
2013-08-07 20:47:00,73.1,52.8,30.07,NNW,338,5.1,5.1,49,0.00,,---,3.23,VWS V14.01,2013-08-08 02:47:00,
2013-08-07 20:52:00,72.9,52.6,30.07,NNW,338,3.6,3.6,49,0.00,,---,3.23,VWS V14.01,2013-08-08 02:52:00,
2013-08-07 20:57:00,72.5,51.7,30.07,North,0,4.7,4.7,48,0.00,,---,3.23,VWS V14.01,2013-08-08 02:57:00,
2013-08-07 21:02:00,72.4,52.2,30.08,NE,45,4.9,4.9,49,0.00,,---,3.23,VWS V14.01,2013-08-08 03:02:00,
2013-08-07 21:07:00,72.2,52.0,30.08,NNE,22,3.1,3.1,49,0.00,,---,3.23,VWS V14.01,2013-08-08 03:07:00,
2013-08-07 21:12:00,72.0,52.4,30.08,NNE,22,4.0,4.0,50,0.00,,---,3.23,VWS V14.01,2013-08-08 03:12:00,
2013-08-07 21:17:00,71.8,52.2,30.08,NNE,22,3.8,3.8,50,0.00,,---,3.23,VWS V14.01,2013-08-08 03:17:00,
2013-08-07 21:22:00,71.6,52.5,30.08,NNW,338,2.7,2.7,51,0.00,,---,3.23,VWS V14.01,2013-08-08 03:22:00,
2013-08-07 21:27:00,71.6,52.5,30.08,NE,45,2.9,4.5,51,0.00,,---,3.23,VWS V14.01,2013-08-08 03:27:00,
2013-08-07 21:32:00,71.3,52.3,30.08,North,0,4.9,4.9,51,0.00,,---,3.23,VWS V14.01,2013-08-08 03:32:00,
2013-08-07 21:37:00,71.1,52.6,30.09,NNE,22,4.0,4.0,52,0.00,,---,3.23,VWS V14.01,2013-08-08 03:37:00,
2013-08-07 21:42:00,70.9,52.4,30.08,North,0,2.0,2.7,52,0.00,,---,3.23,VWS V14.01,2013-08-08 03:42:00,
2013-08-07 21:47:00,70.9,52.9,30.09,North,0,4.0,4.0,53,0.00,,---,3.23,VWS V14.01,2013-08-08 03:47:00,
2013-08-07 21:52:00,70.7,53.3,30.09,North,0,4.7,4.9,54,0.00,,---,3.23,VWS V14.01,2013-08-08 03:52:00,
2013-08-07 21:57:00,70.6,53.7,30.08,North,0,5.8,5.8,55,0.00,,---,3.23,VWS V14.01,2013-08-08 03:57:00,
2013-08-07 22:01:00,70.6,53.7,30.08,NNE,22,3.8,3.8,55,0.00,,---,3.23,VWS V14.01,2013-08-08 04:01:00,
2013-08-07 22:06:00,70.4,53.5,30.09,North,0,2.2,3.4,55,0.00,,---,3.23,VWS V14.01,2013-08-08 04:06:00,
2013-08-07 22:11:00,70.2,53.3,30.09,North,0,2.5,2.5,55,0.00,,---,3.23,VWS V14.01,2013-08-08 04:11:00,
2013-08-07 22:16:00,70.0,53.6,30.09,North,0,2.7,3.4,56,0.00,,---,3.23,VWS V14.01,2013-08-08 04:16:00,
2013-08-07 22:21:00,70.0,53.6,30.09,North,0,2.7,3.1,56,0.00,,---,3.23,VWS V14.01,2013-08-08 04:21:00,
2013-08-07 22:26:00,69.8,53.4,30.09,North,0,1.8,2.0,56,0.00,,---,3.23,VWS V14.01,2013-08-08 04:26:00,
2013-08-07 22:31:00,69.8,53.9,30.09,NNW,338,2.7,2.7,57,0.00,,---,3.23,VWS V14.01,2013-08-08 04:31:00,
2013-08-07 22:36:00,69.8,53.9,30.09,NNE,22,1.3,1.3,57,0.00,,---,3.23,VWS V14.01,2013-08-08 04:36:00,
2013-08-07 22:41:00,69.5,53.6,30.09,NNE,22,0.4,1.1,57,0.00,,---,3.23,VWS V14.01,2013-08-08 04:41:00,
2013-08-07 22:46:00,69.5,53.6,30.09,NNW,338,1.1,1.1,57,0.00,,---,3.23,VWS V14.01,2013-08-08 04:46:00,
2013-08-07 22:51:00,69.5,53.6,30.09,NE,45,1.8,3.1,57,0.00,,---,3.23,VWS V14.01,2013-08-08 04:51:00,
2013-08-07 22:56:00,69.5,53.6,30.09,North,0,3.4,3.4,57,0.00,,---,3.23,VWS V14.01,2013-08-08 04:56:00,
2013-08-07 23:01:00,69.5,53.6,30.09,North,0,1.1,1.1,57,0.00,,---,3.23,VWS V14.01,2013-08-08 05:01:00,
2013-08-07 23:06:00,69.5,53.6,30.09,NNW,338,1.3,1.3,57,0.00,,---,3.23,VWS V14.01,2013-08-08 05:06:00,
2013-08-07 23:11:00,69.5,53.6,30.09,NNE,22,1.3,1.3,57,0.00,,---,3.23,VWS V14.01,2013-08-08 05:11:00,
2013-08-07 23:16:00,69.5,53.6,30.09,NNW,338,1.1,1.1,57,0.00,,---,3.23,VWS V14.01,2013-08-08 05:16:00,
2013-08-07 23:21:00,69.5,54.1,30.09,NNW,338,1.3,1.6,58,0.00,,---,3.23,VWS V14.01,2013-08-08 05:21:00,
2013-08-07 23:26:00,69.5,54.1,30.09,North,0,1.3,1.8,58,0.00,,---,3.23,VWS V14.01,2013-08-08 05:26:00,
2013-08-07 23:31:00,69.3,53.9,30.08,NNW,338,2.0,2.0,58,0.00,,---,3.23,VWS V14.01,2013-08-08 05:31:00,
2013-08-07 23:36:00,69.1,54.2,30.09,North,0,1.1,1.1,59,0.00,,---,3.23,VWS V14.01,2013-08-08 05:36:00,
2013-08-07 23:41:00,68.9,54.0,30.08,NNW,338,0.9,0.9,59,0.00,,---,3.23,VWS V14.01,2013-08-08 05:41:00,
2013-08-07 23:46:00,68.9,54.5,30.09,NNE,22,0.9,0.9,60,0.00,,---,3.23,VWS V14.01,2013-08-08 05:46:00,
2013-08-07 23:51:00,68.8,54.4,30.08,NNE,22,0.7,0.7,60,0.00,,---,3.23,VWS V14.01,2013-08-08 05:51:00,
2013-08-07 23:56:00,68.8,54.8,30.09,NNW,338,1.1,1.1,61,0.00,,---,3.23,VWS V14.01,2013-08-08 05:56:00,